メインページ
METAR-TAF:

METAR-TAF

空港 :

アカプルコ, メキシコ

アカプルコ国際空港

緯度: 16-46N, 経度: 099-45W, 海抜: 5m

現時点の気象観測

当レポートは45分前の15:48(UTC)に作成
の風 4kt
気温 28°C
湿度 74%
気圧 1014 hPa
視程: 9.7km
高度1500ftの雲は散在している, 塔状積雲.
高度30000ftの雲は散在している

METAR: MMAA 221548Z 36004KT 6SM SCT015TCU SCT300 28/23 A2993 RMK 8/208 HZY

時間: 10:33 (16:33 UTC)

予報

当レポートは5時間7分前の11:26(UTC)に作成
予報は22日の 12時(UTC)から 23日の 18時(UTC)まで有効
北東の風 5kt
視程: 8.0km
高度1500ftの雲は散在している
高度8000ftの雲は散在している
煙霧
22日の 13時(UTC)から 22日の 17時(UTC)まで一時的に
高度1500ftの千切れ雲あり, 積乱雲.
22日の 1800時(UTC)から
南西の風 10kt
視程: 9.7km
高度1500ftの雲は散在している
高度8000ftの雲は散在している
高度25000ftの千切れ雲あり
煙霧
23日の 0600時(UTC)から
北/北西の風 5kt
視程: 9.7km
高度1500ftの雲は散在している
高度25000ftの雲は散在している
煙霧
確率 40%
22日の 07時(UTC)から 22日の 11時(UTC)まで
視程: 8.0km
高度1500ftの千切れ雲あり, 積乱雲.
激しい雷雨, 雨
23日の 1700時(UTC)から
南西の風 10kt
視程: 9.7km
高度1500ftの雲は散在している
高度8000ftの雲は散在している
高度25000ftの千切れ雲あり
煙霧

TAF: MMAA 221126Z 2212/2318 04005KT 5SM HZ SCT015 SCT080 TX30/2219Z TN25/2212Z TEMPO 2213/2217 BKN015CB FM221800 23010KT 6SM HZ SCT015 SCT080 BKN250 FM230600 34005KT 6SM HZ SCT015 SCT250 PROB40 2207/2211 5SM TSRA BKN015CB FM231700 23010KT 6SM HZ SCT015 SCT080 BKN250

4,000以上の空港の気象観測と天気予報(METAR報とTAF報)

利用可能な観測所は地図上に黄色い丸と赤い丸で示す。

丸の上にカーソルを重ねると観測所名を参照できる。

次にクリックすると気象観測と天気予報を参照できる。

マップの切り替え:黒色「×」印の緑ボタンをクリックして拡大、「-」印の緑ボタンをクリックして縮小、緑色の三角印をクリックして隣りの地図に切り替え


METAR-TAF: